SKMRSKBO

Guest
Details From SKMR - LOS GARZONES
To SKBO - Bogota - El Dorado Intl
Flight Number -
Tags generated
Created
Modified
Stats Distance 272 nm / 504 km
Max Altitude 23,500 ft / 7,163 m
Waypoints 6
Social Downloads 0
Likes 0
Share VATSIM

Download

Looking for another format? Having issues loading an existing format? Contact us
Advertisement - Login to hide

Notes

Basic altitude profile: - Ascent Rate: 2500ft/min - Ascent Speed: 250kts - Cruise Altitude: 35000ft - Cruise Speed: 420kts - Descent Rate: 1500ft/min - Descent Speed: 250kts Options: - Use NATs: yes - Use PACOTS: yes - Use low airways: yes - Use high airways: yes

Route

SKMR BUTAL W23 JULIE SKBO

ID Type Via Altitude Latitude Longitude Leg Dist Tot Dist Heading (true) Name
O SKMR APT - 0 ft / 0 m 8.82374˚ -75.82583˚ - 0 nm - LOS GARZONES
BUTAL FIX - 21,200 ft / 6,462 m 7.85361˚ -75.45722˚ 62 nm 62 nm 159° / 159° -
MENTO FIX W23 (AWY-LO) 23,500 ft / 7,163 m 7.02083˚ -75.27500˚ 51 nm 113 nm 168° / 168° -
ALEJA FIX W23 (AWY-LO) 23,500 ft / 7,163 m 6.39139˚ -75.13889˚ 38 nm 152 nm 168° / 168° -
JULIE FIX W23 (AWY-LO) 17,700 ft / 5,395 m 5.85167˚ -75.04167˚ 32 nm 185 nm 170° / 170° -
O SKBO APT - 0 ft / 0 m 4.70159˚ -74.14695˚ 87 nm 272 nm 142° / 142° Bogota - El Dorado Intl

Altitude Profile

Advertisement - Login to hide

Weather


0- 5 10 15 20 25 30 35+ Temperature / ° C

Clouds and Precipitation
Forecast for 2017-12-14 00:00 UTC. Updated an hour ago

Ground ~20,000 ft ~40,000 ft Winds

SKMR

Details ICAO SKMR (MTR)
Name LOS GARZONES
Region Colombia
Timezone America/Bogota (UTC-5.0)
Stats Elevation 36 ft / 11 m (AMSL)
Location 8.823745° -75.825832°
Runways 1
Magnetic Variation 6.767° W

METAR

SKMR 132200Z VRB02KT 9999 FEW030 32/20 A2981 METAR SKLC 132200Z 31012KT 9999 FEW025 28/22 A2981

Decode

TAF

Not found

Departure Runways

ID Width Length Bearing (true) Bearing (mag) Surface Threshold Offset Overrun Length
14 115 ft / 35 m 6,302 ft / 1,921 m 137.94° 144.71° Asphalt 0 ft / 0 m 0 ft / 0 m
32 115 ft / 35 m 6,302 ft / 1,921 m 317.94° 324.71° Asphalt 0 ft / 0 m 0 ft / 0 m

SKBO

Details ICAO SKBO (BOG)
Name Bogota - El Dorado Intl
Region Colombia
Timezone America/Bogota (UTC-5.0)
Stats Elevation 8,361 ft / 2,548 m (AMSL)
Location 4.701594° -74.146946°
Runways 2
Magnetic Variation 7.267° W

METAR

SKBO 132200Z 27009KT 9999 VCSH SCT020CB SCT200 18/11 A3028 RMKCB VCSH/E/SE

Decode

TAF

Not found

Destination Runways

ID Width Length Bearing (true) Bearing (mag) Surface Threshold Offset Overrun Length
13L 148 ft / 45 m 12,482 ft / 3,804 m 127.21° 134.48° Asphalt 0 ft / 0 m 0 ft / 0 m
13R 148 ft / 45 m 12,494 ft / 3,808 m 127.23° 134.50° Asphalt 0 ft / 0 m 200 ft / 61 m
31L 148 ft / 45 m 12,494 ft / 3,808 m 307.23° 314.50° Asphalt 0 ft / 0 m 190 ft / 58 m
31R 148 ft / 45 m 12,482 ft / 3,804 m 307.21° 314.48° Asphalt 0 ft / 0 m 0 ft / 0 m

Approach Navaids

Runway Type Ident Frequency Range Bearing (true) Bearing (mag) Slope Elevation
13L Localiser IEDR 111.30 MHz 18 nm / 33 km 127.21° 134.48° - 8,355 ft / 2,547 m (AMSL)
13L Glidescope IEDR 111.30 MHz 10 nm / 19 km 127.21° 134.48° 3.00° 8,357 ft / 2,547 m (AMSL)
13L DME IEDR 111.30 MHz 18 nm / 33 km - - - 8,361 ft / 2,548 m (AMSL)
13R Localiser IADO 110.70 MHz 18 nm / 33 km 127.23° 134.50° - 8,355 ft / 2,547 m (AMSL)
13R Glidescope IADO 110.70 MHz 10 nm / 19 km 127.23° 134.50° 3.00° 8,361 ft / 2,548 m (AMSL)
13R DME IADO 110.70 MHz 18 nm / 33 km - - - 8,361 ft / 2,548 m (AMSL)

Popular Alternatives